Time;durP1;ratioP1;P1;durP2;ratioP2;P2;SDS_P1;SDS_P2;PMS_P1;PMS_P2;Temp;Humidity;BMP_temperature;BMP_pressure;BME280_temperature;BME280_humidity;BME280_pressure;Samples;Min_cycle;Max_cycle;Signal;HPM_P1;HPM_P2
2021/01/24 00:00:58;;;;;;;59.40;24.87;;;2.00;99.90;;;;;;4362012;28;660114;-60
2021/01/24 00:03:46;;;;;;;68.07;27.67;;;2.00;99.90;;;;;;4343259;28;659593;-61
2021/01/24 00:06:33;;;;;;;72.47;30.90;;;2.00;99.90;;;;;;4361817;28;661147;-60
2021/01/24 00:09:20;;;;;;;60.30;24.77;;;1.90;99.90;;;;;;4343104;28;660133;-61
2021/01/24 00:12:07;;;;;;;60.03;25.70;;;1.90;99.90;;;;;;4366084;28;660516;-61
2021/01/24 00:14:54;;;;;;;58.63;25.23;;;1.80;99.90;;;;;;4346660;28;660155;-61
2021/01/24 00:17:41;;;;;;;54.07;23.37;;;1.80;99.90;;;;;;4365577;28;659266;-60
2021/01/24 00:20:29;;;;;;;58.60;23.60;;;1.80;99.90;;;;;;4362027;28;659530;-60
2021/01/24 00:23:16;;;;;;;60.17;24.30;;;1.90;99.90;;;;;;4339050;28;661186;-59
2021/01/24 00:26:03;;;;;;;62.27;24.70;;;1.80;99.90;;;;;;4361579;28;659697;-60
2021/01/24 00:28:50;;;;;;;58.57;25.00;;;1.80;99.90;;;;;;4331640;28;659729;-60
2021/01/24 00:31:37;;;;;;;64.78;25.10;;;1.90;99.90;;;;;;4343086;28;661332;-60
2021/01/24 00:34:24;;;;;;;71.87;27.43;;;1.90;99.90;;;;;;4326898;28;660204;-62
2021/01/24 00:37:12;;;;;;;76.30;30.02;;;1.90;99.90;;;;;;4349131;28;659223;-60
2021/01/24 00:39:59;;;;;;;63.13;28.10;;;2.00;99.90;;;;;;4330031;28;659700;-61
2021/01/24 00:42:46;;;;;;;64.97;25.00;;;1.90;99.90;;;;;;4347580;28;659368;-60
2021/01/24 00:45:33;;;;;;;62.58;26.90;;;1.90;99.90;;;;;;4343678;28;660527;-60
2021/01/24 00:48:20;;;;;;;68.53;26.37;;;2.00;99.90;;;;;;4321145;28;660034;-60
2021/01/24 00:51:07;;;;;;;70.00;27.63;;;1.90;99.90;;;;;;4343682;28;661246;-60
2021/01/24 00:53:55;;;;;;;65.82;28.55;;;1.90;99.90;;;;;;4327099;28;660239;-62
2021/01/24 00:56:42;;;;;;;65.97;27.23;;;1.90;99.90;;;;;;4344921;28;661501;-59
2021/01/24 00:59:29;;;;;;;65.60;27.47;;;2.00;99.90;;;;;;4327068;28;659639;-62
2021/01/24 01:02:16;;;;;;;72.00;27.77;;;1.90;99.90;;;;;;4347635;28;659429;-60
2021/01/24 01:05:05;;;;;;;71.53;27.97;;;1.90;99.90;;;;;;4343243;28;660021;-61
2021/01/24 01:07:52;;;;;;;66.27;28.17;;;1.90;99.90;;;;;;4320726;28;660593;-60
2021/01/24 01:10:40;;;;;;;66.82;27.90;;;1.80;99.90;;;;;;4330713;28;659790;-62
2021/01/24 01:13:27;;;;;;;68.43;27.83;;;1.80;99.90;;;;;;4343358;28;661511;-60
2021/01/24 01:16:14;;;;;;;72.93;29.63;;;1.70;99.90;;;;;;4324618;28;659777;-61
2021/01/24 01:19:01;;;;;;;79.80;30.90;;;1.70;99.90;;;;;;4347052;28;660662;-60
2021/01/24 01:21:48;;;;;;;69.60;29.23;;;1.70;99.90;;;;;;4345358;28;659994;-60
2021/01/24 01:24:35;;;;;;;71.47;29.80;;;1.60;99.90;;;;;;4326477;28;659829;-60
2021/01/24 01:27:23;;;;;;;77.47;30.13;;;1.60;99.90;;;;;;4343504;28;661935;-60
2021/01/24 01:30:11;;;;;;;81.43;31.00;;;1.60;99.90;;;;;;4342157;28;659727;-61
2021/01/24 01:32:58;;;;;;;81.77;31.53;;;1.60;99.90;;;;;;4348764;28;659481;-60
2021/01/24 01:35:45;;;;;;;72.75;29.60;;;1.50;99.90;;;;;;4341530;28;659655;-61
2021/01/24 01:38:33;;;;;;;98.30;36.40;;;1.50;99.90;;;;;;4344949;28;660419;-60
2021/01/24 01:41:20;;;;;;;88.13;32.60;;;1.50;99.90;;;;;;4341353;28;659944;-61
2021/01/24 01:44:08;;;;;;;70.40;29.07;;;1.50;99.90;;;;;;4363442;28;660391;-61
2021/01/24 01:46:55;;;;;;;96.80;35.87;;;1.50;99.90;;;;;;4341523;28;660144;-61
2021/01/24 01:49:42;;;;;;;107.67;39.83;;;1.50;99.90;;;;;;4362011;28;659830;-60
2021/01/24 01:52:29;;;;;;;110.37;41.07;;;1.50;99.90;;;;;;4343221;28;660996;-62
2021/01/24 01:55:16;;;;;;;133.37;44.43;;;1.50;99.90;;;;;;4346210;28;662721;-60
2021/01/24 01:58:03;;;;;;;119.00;45.07;;;1.50;99.90;;;;;;4346378;28;660357;-60
2021/01/24 02:00:51;;;;;;;119.27;43.73;;;1.50;99.90;;;;;;4327595;28;660746;-60
2021/01/24 02:03:42;;;;;;;122.50;44.90;;;1.50;99.90;;;;;;4346113;28;661637;-60
2021/01/24 02:06:33;;;;;;;133.60;46.87;;;1.40;99.90;;;;;;4310367;28;661608;-62
2021/01/24 02:09:24;;;;;;;111.80;44.37;;;1.40;99.90;;;;;;4326460;28;660907;-60
2021/01/24 02:12:14;;;;;;;128.10;46.77;;;1.40;99.90;;;;;;4338936;28;663162;-60
2021/01/24 02:15:02;;;;;;;112.30;44.23;;;1.40;99.90;;;;;;4342679;28;661728;-60
2021/01/24 02:17:52;;;;;;;116.63;42.83;;;1.40;99.90;;;;;;4342687;28;661508;-60
2021/01/24 02:20:42;;;;;;;109.47;41.15;;;1.40;99.90;;;;;;4342728;28;660459;-62
2021/01/24 02:23:29;;;;;;;89.27;35.20;;;1.40;99.90;;;;;;4345723;28;662014;-62
2021/01/24 02:26:23;;;;;;;116.20;43.20;;;1.40;99.90;;;;;;4366659;28;660130;-60
2021/01/24 02:29:17;;;;;;;87.53;31.27;;;1.30;99.90;;;;;;4326992;28;660563;-61
2021/01/24 02:32:05;;;;;;;96.63;33.67;;;1.60;99.90;;;;;;4306473;28;661205;-61
2021/01/24 02:34:52;;;;;;;109.17;39.83;;;1.40;99.90;;;;;;4347481;28;661257;-60
2021/01/24 02:37:39;;;;;;;127.20;47.27;;;1.30;99.90;;;;;;4327510;28;660786;-62
2021/01/24 02:40:27;;;;;;;139.47;50.57;;;1.30;99.90;;;;;;4346030;28;662239;-60
2021/01/24 02:43:14;;;;;;;142.03;49.83;;;1.30;99.90;;;;;;4343086;28;660807;-62
2021/01/24 02:46:01;;;;;;;132.67;50.13;;;1.20;99.90;;;;;;4350492;28;661485;-60
2021/01/24 02:48:50;;;;;;;137.73;53.37;;;1.20;99.90;;;;;;4345828;28;660409;-60
2021/01/24 02:51:36;;;;;;;138.93;52.93;;;1.30;99.90;;;;;;4323214;28;662064;-60
2021/01/24 02:54:24;;;;;;;137.37;52.97;;;1.30;99.90;;;;;;4345240;28;661624;-62
2021/01/24 02:57:11;;;;;;;130.37;50.67;;;1.30;99.90;;;;;;4346069;28;661618;-61
2021/01/24 02:59:58;;;;;;;126.53;50.73;;;1.30;99.90;;;;;;4345415;28;662024;-61
2021/01/24 03:02:45;;;;;;;126.90;49.97;;;1.30;99.90;;;;;;4323305;28;662323;-61
2021/01/24 03:05:33;;;;;;;131.33;48.17;;;1.30;99.90;;;;;;4345669;28;662217;-60
2021/01/24 03:08:20;;;;;;;106.60;40.77;;;1.30;99.90;;;;;;4323534;28;660750;-61
2021/01/24 03:11:10;;;;;;;94.67;38.53;;;1.30;99.90;;;;;;4345714;28;661012;-60
2021/01/24 03:14:02;;;;;;;101.53;39.90;;;1.30;99.90;;;;;;4324044;28;660615;-60
2021/01/24 03:16:49;;;;;;;99.20;38.33;;;1.30;99.90;;;;;;4318850;28;661027;-62
2021/01/24 03:19:36;;;;;;;89.90;36.38;;;1.40;99.90;;;;;;4350692;28;659167;-60
2021/01/24 03:22:24;;;;;;;92.65;35.67;;;1.40;99.90;;;;;;4346682;28;659603;-61
2021/01/24 03:25:11;;;;;;;87.32;34.47;;;1.40;99.90;;;;;;4328221;28;660895;-60
2021/01/24 03:27:58;;;;;;;77.93;32.17;;;1.40;99.90;;;;;;4350592;28;659405;-60
2021/01/24 03:30:48;;;;;;;88.87;34.50;;;1.40;99.90;;;;;;4342141;28;659613;-61
2021/01/24 03:33:35;;;;;;;91.10;35.60;;;1.40;99.90;;;;;;4343676;28;659761;-61
2021/01/24 03:36:22;;;;;;;86.20;34.97;;;1.50;99.90;;;;;;4361359;28;660606;-60
2021/01/24 03:39:10;;;;;;;91.83;35.87;;;1.50;99.90;;;;;;4345473;28;659938;-62
2021/01/24 03:41:57;;;;;;;87.07;36.03;;;1.40;99.90;;;;;;4363719;28;660253;-61
2021/01/24 03:44:44;;;;;;;83.73;34.23;;;1.40;99.90;;;;;;4345168;28;659944;-62
2021/01/24 03:47:31;;;;;;;85.93;35.27;;;1.40;99.90;;;;;;4365893;28;659563;-60
2021/01/24 03:50:18;;;;;;;91.17;34.93;;;1.50;99.90;;;;;;4360656;28;659891;-60
2021/01/24 03:53:05;;;;;;;89.37;35.93;;;1.50;99.90;;;;;;4342923;28;659750;-61
2021/01/24 03:55:53;;;;;;;90.97;35.60;;;1.40;99.90;;;;;;4346033;28;661083;-60
2021/01/24 03:58:40;;;;;;;88.68;35.80;;;1.40;99.90;;;;;;4342173;28;660381;-61
2021/01/24 04:01:27;;;;;;;96.83;35.63;;;1.40;99.90;;;;;;4361776;28;660721;-61
2021/01/24 04:04:14;;;;;;;79.03;33.13;;;1.40;99.90;;;;;;4343304;28;660443;-61
2021/01/24 04:07:01;;;;;;;85.63;33.03;;;1.50;99.90;;;;;;4361217;28;661451;-60
2021/01/24 04:09:48;;;;;;;78.93;32.67;;;1.50;99.90;;;;;;4361217;28;659230;-60
2021/01/24 04:12:36;;;;;;;81.70;31.47;;;1.50;99.90;;;;;;4341213;28;659628;-61
2021/01/24 04:15:23;;;;;;;79.47;31.40;;;1.50;99.90;;;;;;4361644;28;660580;-60
2021/01/24 04:18:11;;;;;;;80.07;31.45;;;1.50;99.90;;;;;;4343578;28;660269;-61
2021/01/24 04:20:58;;;;;;;80.93;31.70;;;1.50;99.90;;;;;;4361623;28;660282;-60
2021/01/24 04:23:45;;;;;;;76.37;30.23;;;1.50;99.90;;;;;;4342497;28;659772;-61
2021/01/24 04:26:32;;;;;;;68.20;27.23;;;1.50;99.90;;;;;;4363039;28;660904;-60
2021/01/24 04:29:20;;;;;;;73.90;29.43;;;1.50;99.90;;;;;;4352556;28;659767;-62
2021/01/24 04:32:07;;;;;;;67.03;27.30;;;1.50;99.90;;;;;;4361236;28;660089;-61
2021/01/24 04:34:54;;;;;;;66.90;27.67;;;1.50;99.90;;;;;;4342229;28;661195;-62
2021/01/24 04:37:41;;;;;;;62.35;27.33;;;1.50;99.90;;;;;;4365437;28;660296;-60
2021/01/24 04:40:28;;;;;;;66.78;27.88;;;1.50;99.90;;;;;;4361551;28;660808;-61
2021/01/24 04:43:15;;;;;;;59.03;24.60;;;1.50;99.90;;;;;;4342171;28;659573;-60
2021/01/24 04:46:03;;;;;;;55.37;22.90;;;1.50;99.90;;;;;;4360722;28;659651;-60
2021/01/24 04:48:50;;;;;;;49.20;21.07;;;1.40;99.90;;;;;;4324848;28;661058;-61
2021/01/24 04:51:39;;;;;;;51.50;22.90;;;1.40;99.90;;;;;;4345642;28;661507;-61
2021/01/24 04:54:26;;;;;;;48.50;21.00;;;1.40;99.90;;;;;;4322833;28;661766;-60
2021/01/24 04:57:13;;;;;;;55.83;22.83;;;1.40;99.90;;;;;;4345505;28;660121;-60
2021/01/24 05:00:00;;;;;;;46.63;20.93;;;1.30;99.90;;;;;;4326986;28;659916;-61
2021/01/24 05:02:48;;;;;;;51.90;22.00;;;1.30;99.90;;;;;;4364807;28;660971;-60
2021/01/24 05:05:35;;;;;;;47.67;21.87;;;1.30;99.90;;;;;;4342315;28;659848;-61
2021/01/24 05:08:23;;;;;;;50.00;21.53;;;1.30;99.90;;;;;;4363547;28;660908;-60
2021/01/24 05:11:10;;;;;;;42.00;19.20;;;1.20;99.90;;;;;;4339603;28;659704;-60
2021/01/24 05:14:15;;;;;;;68.20;19.10;;;1.20;99.90;;;;;;4363441;28;660426;-61
2021/01/24 05:17:02;;;;;;;43.00;18.77;;;1.20;99.90;;;;;;4337423;28;660090;-60
2021/01/24 05:19:50;;;;;;;50.97;19.97;;;1.20;99.90;;;;;;4330672;28;659542;-62
2021/01/24 05:22:40;;;;;;;44.53;18.77;;;1.20;99.90;;;;;;4361434;28;661607;-60
2021/01/24 05:25:28;;;;;;;48.50;20.03;;;1.20;99.90;;;;;;4341759;28;661508;-60
2021/01/24 05:28:19;;;;;;;52.63;22.20;;;1.30;99.90;;;;;;4340536;28;660617;-61
2021/01/24 05:31:06;;;;;;;47.83;19.33;;;1.20;99.90;;;;;;4325519;28;661476;-61
2021/01/24 05:33:56;;;;;;;43.67;18.63;;;1.20;99.90;;;;;;4346771;28;659433;-61
2021/01/24 05:36:45;;;;;;;48.77;18.30;;;1.20;99.90;;;;;;4326836;28;659563;-60
2021/01/24 05:39:32;;;;;;;45.33;18.00;;;1.20;99.90;;;;;;4325636;28;661948;-61
2021/01/24 05:42:19;;;;;;;42.53;17.38;;;1.20;99.90;;;;;;4328292;28;659649;-62
2021/01/24 05:45:16;;;;;;;45.03;18.17;;;1.30;99.90;;;;;;4351025;28;660693;-60
2021/01/24 05:48:04;;;;;;;47.27;18.77;;;1.20;99.90;;;;;;4324547;28;660235;-60
2021/01/24 05:50:54;;;;;;;47.73;21.13;;;1.20;99.90;;;;;;4307253;29;660474;-60
2021/01/24 05:53:45;;;;;;;42.03;18.20;;;1.20;99.90;;;;;;4329626;28;659921;-61
2021/01/24 05:56:32;;;;;;;45.83;18.67;;;1.20;99.90;;;;;;4322972;28;660766;-61
2021/01/24 05:59:19;;;;;;;49.53;20.23;;;1.20;99.90;;;;;;4329326;28;659478;-61
2021/01/24 06:02:06;;;;;;;45.13;18.27;;;1.10;99.90;;;;;;4347785;28;661045;-60
2021/01/24 06:04:55;;;;;;;50.17;19.90;;;1.10;99.90;;;;;;4346449;28;659495;-62
2021/01/24 06:07:42;;;;;;;45.80;18.53;;;1.10;99.90;;;;;;4346692;28;661120;-61
2021/01/24 06:10:30;;;;;;;45.43;18.77;;;1.20;99.90;;;;;;4329544;28;659337;-61
2021/01/24 06:13:21;;;;;;;704.80;40.27;;;1.20;99.90;;;;;;4347842;28;661539;-61
2021/01/24 06:16:11;;;;;;;56.57;21.13;;;1.20;99.90;;;;;;4324052;28;661095;-61
2021/01/24 06:18:59;;;;;;;55.00;20.53;;;1.20;99.90;;;;;;4325070;28;660715;-61
2021/01/24 06:21:48;;;;;;;51.30;19.33;;;1.20;99.90;;;;;;4325026;28;660798;-61
2021/01/24 06:24:38;;;;;;;53.57;19.63;;;1.30;99.90;;;;;;4325822;28;659596;-60
2021/01/24 06:27:27;;;;;;;50.03;19.20;;;1.40;99.90;;;;;;4328860;28;659603;-61
2021/01/24 06:30:17;;;;;;;50.13;19.10;;;1.30;99.90;;;;;;4322847;28;659430;-61
2021/01/24 06:33:14;;;;;;;50.75;19.67;;;1.30;99.90;;;;;;4327021;28;660603;-62
2021/01/24 06:36:01;;;;;;;57.20;22.67;;;1.30;99.90;;;;;;4321310;28;660008;-61
2021/01/24 06:38:54;;;;;;;58.20;23.57;;;1.30;99.90;;;;;;4346014;28;659677;-60
2021/01/24 06:41:44;;;;;;;61.77;24.87;;;1.30;99.90;;;;;;4300972;28;660852;-60
2021/01/24 06:44:36;;;;;;;58.17;24.00;;;1.30;99.90;;;;;;4323473;28;660704;-61
2021/01/24 06:47:39;;;;;;;60.27;24.10;;;1.30;99.90;;;;;;4323335;28;660302;-61
2021/01/24 06:50:40;;;;;;;67.63;25.87;;;1.30;99.90;;;;;;4327756;28;659767;-60
2021/01/24 06:53:27;;;;;;;311.90;58.37;;;1.30;99.90;;;;;;4317694;28;659931;-60
2021/01/24 06:56:16;;;;;;;116.93;34.23;;;1.30;99.90;;;;;;4320327;28;660659;-61
2021/01/24 06:59:03;;;;;;;66.70;25.90;;;1.40;99.90;;;;;;4344662;28;660550;-60
2021/01/24 07:01:51;;;;;;;58.73;25.07;;;1.30;99.90;;;;;;4327268;28;660527;-60
2021/01/24 07:04:38;;;;;;;88.50;35.57;;;1.40;99.90;;;;;;4340015;28;660091;-61
2021/01/24 07:07:33;;;;;;;58.17;25.03;;;1.40;99.90;;;;;;4321692;28;660414;-62
2021/01/24 07:10:41;;;;;;;58.20;22.03;;;1.40;99.90;;;;;;4300307;28;660767;-62
2021/01/24 07:13:36;;;;;;;139.00;40.97;;;1.50;99.90;;;;;;4323241;28;660202;-60
2021/01/24 07:16:23;;;;;;;78.05;29.58;;;1.50;99.90;;;;;;4321902;28;661735;-61
2021/01/24 07:19:15;;;;;;;63.47;26.13;;;1.50;99.90;;;;;;4327192;28;661219;-60
2021/01/24 07:22:03;;;;;;;49.50;21.47;;;1.50;99.90;;;;;;4321676;28;660225;-60
2021/01/24 07:24:51;;;;;;;47.60;19.05;;;1.80;99.90;;;;;;4326825;28;659680;-61
2021/01/24 07:27:38;;;;;;;52.63;20.83;;;2.00;99.90;;;;;;4345279;28;659956;-60
2021/01/24 07:30:25;;;;;;;52.03;21.13;;;2.00;99.90;;;;;;4327899;28;660374;-61
2021/01/24 07:33:12;;;;;;;45.70;15.27;;;2.00;99.90;;;;;;4349482;28;660958;-60
2021/01/24 07:36:01;;;;;;;27.90;11.97;;;2.10;99.90;;;;;;4327478;28;659530;-62
2021/01/24 07:38:48;;;;;;;28.50;11.35;;;2.30;99.90;;;;;;4327305;29;659884;-61
2021/01/24 07:41:35;;;;;;;47.45;19.73;;;2.20;99.90;;;;;;4327830;28;660187;-61
2021/01/24 07:44:23;;;;;;;37.43;16.43;;;2.10;99.90;;;;;;4327847;28;660532;-60
2021/01/24 07:47:10;;;;;;;59.87;25.47;;;2.00;99.90;;;;;;4326749;28;660218;-61
2021/01/24 07:49:57;;;;;;;52.30;23.47;;;1.90;99.90;;;;;;4346141;28;660674;-60
2021/01/24 07:52:46;;;;;;;67.63;28.50;;;2.00;99.90;;;;;;4327627;28;660547;-62
2021/01/24 07:55:32;;;;;;;64.70;25.77;;;1.90;99.90;;;;;;4345907;28;659577;-60
2021/01/24 07:58:20;;;;;;;52.03;22.87;;;1.80;99.90;;;;;;4326409;28;659765;-61
2021/01/24 08:01:07;;;;;;;59.13;22.27;;;1.90;99.90;;;;;;4348913;28;660948;-60
2021/01/24 08:03:54;;;;;;;55.70;24.13;;;1.90;99.90;;;;;;4336444;28;659569;-62
2021/01/24 08:06:41;;;;;;;52.47;21.48;;;1.90;99.90;;;;;;4349676;28;660280;-60
2021/01/24 08:09:29;;;;;;;66.97;27.27;;;1.90;99.90;;;;;;4344484;28;660209;-61
2021/01/24 08:12:17;;;;;;;88.63;35.30;;;2.00;99.90;;;;;;4326405;28;660812;-60
2021/01/24 08:15:05;;;;;;;85.87;35.47;;;1.90;99.90;;;;;;4339449;28;659583;-62
2021/01/24 08:17:52;;;;;;;76.17;30.80;;;2.00;99.90;;;;;;4326984;29;661118;-61
2021/01/24 08:20:39;;;;;;;91.27;35.57;;;2.10;99.90;;;;;;4309064;28;659456;-61
2021/01/24 08:23:27;;;;;;;89.07;33.77;;;2.20;99.90;;;;;;4345711;28;661117;-61
2021/01/24 08:26:15;;;;;;;101.80;36.40;;;2.00;99.90;;;;;;4331172;28;659583;-61
2021/01/24 08:29:02;;;;;;;79.77;28.33;;;2.20;99.90;;;;;;4336563;28;661745;-60
2021/01/24 08:31:49;;;;;;;113.47;35.25;;;2.10;99.90;;;;;;4327048;28;659643;-62
2021/01/24 08:34:36;;;;;;;94.03;31.50;;;2.20;99.90;;;;;;4342952;28;661467;-60
2021/01/24 08:37:25;;;;;;;124.40;36.50;;;2.30;99.90;;;;;;4345850;28;660599;-60
2021/01/24 08:40:13;;;;;;;67.17;25.17;;;2.20;99.90;;;;;;4336565;28;661982;-61
2021/01/24 08:43:01;;;;;;;60.37;19.93;;;2.20;99.90;;;;;;4342612;28;659708;-60
2021/01/24 08:45:48;;;;;;;24.08;10.98;;;2.00;99.90;;;;;;4361561;28;659939;-61
2021/01/24 08:48:35;;;;;;;143.87;37.90;;;2.20;99.90;;;;;;4326786;28;659827;-62
2021/01/24 08:51:22;;;;;;;146.20;37.20;;;2.10;99.90;;;;;;4343153;28;662335;-60
2021/01/24 08:54:25;;;;;;;136.37;42.20;;;2.10;99.90;;;;;;4325841;28;660924;-62
2021/01/24 08:57:13;;;;;;;205.07;47.27;;;2.00;99.90;;;;;;4322047;28;661036;-59
2021/01/24 09:00:01;;;;;;;36.83;14.53;;;2.00;99.90;;;;;;4322480;28;661465;-62
2021/01/24 09:02:48;;;;;;;143.00;34.70;;;2.00;99.90;;;;;;4344068;28;659500;-61
2021/01/24 09:05:39;;;;;;;83.20;30.80;;;2.10;99.90;;;;;;4323500;28;660975;-61
2021/01/24 09:08:29;;;;;;;70.38;22.08;;;2.00;99.90;;;;;;4327023;28;661360;-60
2021/01/24 09:11:16;;;;;;;116.30;38.03;;;2.00;99.90;;;;;;4321505;28;661715;-61
2021/01/24 09:14:03;;;;;;;59.27;21.30;;;1.90;99.90;;;;;;4342856;28;661872;-59
2021/01/24 09:17:06;;;;;;;49.70;18.93;;;2.00;99.90;;;;;;4323355;28;659775;-61
2021/01/24 09:19:53;;;;;;;114.47;35.13;;;1.80;99.90;;;;;;4322523;28;659564;-60
2021/01/24 09:22:40;;;;;;;47.53;14.97;;;1.70;99.90;;;;;;4320167;28;662375;-60
2021/01/24 09:25:27;;;;;;;72.83;22.20;;;1.70;99.90;;;;;;4361061;28;660837;-61
2021/01/24 09:28:14;;;;;;;73.00;23.20;;;1.70;99.90;;;;;;4342357;28;659680;-61
2021/01/24 09:31:01;;;;;;;116.10;29.87;;;1.60;99.90;;;;;;4360831;28;661633;-60
2021/01/24 09:33:49;;;;;;;73.93;22.00;;;1.40;99.90;;;;;;4368475;28;661104;-60
2021/01/24 09:36:36;;;;;;;108.37;36.00;;;1.40;99.90;;;;;;4353256;28;660881;-61
2021/01/24 09:39:24;;;;;;;37.90;15.13;;;1.40;99.90;;;;;;4375541;28;660728;-62
2021/01/24 09:42:12;;;;;;;75.60;26.13;;;1.50;99.90;;;;;;4361273;28;660804;-60
2021/01/24 09:44:59;;;;;;;101.60;31.30;;;1.50;99.90;;;;;;4358446;28;659661;-62
2021/01/24 09:47:47;;;;;;;91.70;23.73;;;1.30;99.90;;;;;;4379444;28;661172;-61
2021/01/24 09:50:35;;;;;;;69.10;22.67;;;1.40;99.90;;;;;;4358116;28;659732;-60
2021/01/24 09:53:23;;;;;;;27.87;11.60;;;1.40;99.90;;;;;;4376747;28;661412;-60
2021/01/24 09:56:10;;;;;;;52.60;17.57;;;1.40;99.90;;;;;;4358257;28;660601;-61
2021/01/24 09:58:57;;;;;;;29.03;11.83;;;1.50;99.90;;;;;;4376869;28;661690;-60
2021/01/24 10:01:44;;;;;;;35.47;12.43;;;1.50;99.90;;;;;;4374069;28;659795;-62
2021/01/24 10:04:31;;;;;;;48.70;17.20;;;1.40;99.90;;;;;;4376750;28;661204;-60
2021/01/24 10:07:19;;;;;;;50.30;17.60;;;1.50;99.90;;;;;;4360888;28;660880;-60
2021/01/24 10:10:07;;;;;;;57.17;21.48;;;1.50;99.90;;;;;;4358737;28;660365;-60
2021/01/24 10:12:54;;;;;;;44.43;16.67;;;1.40;99.90;;;;;;4360930;28;660153;-61
2021/01/24 10:15:41;;;;;;;57.17;21.87;;;1.50;99.90;;;;;;4379686;28;660694;-60
2021/01/24 10:18:28;;;;;;;49.23;18.67;;;1.60;99.90;;;;;;4364189;28;659608;-60
2021/01/24 10:21:15;;;;;;;45.53;18.30;;;1.60;99.90;;;;;;4357388;28;660104;-61
2021/01/24 10:24:04;;;;;;;36.83;13.07;;;1.60;99.90;;;;;;4379533;28;661138;-61
2021/01/24 10:26:51;;;;;;;50.07;18.53;;;1.60;99.90;;;;;;4356912;28;661238;-61
2021/01/24 10:29:38;;;;;;;33.50;13.87;;;1.60;99.90;;;;;;4365465;28;660408;-60
2021/01/24 10:32:25;;;;;;;48.70;16.73;;;1.60;99.90;;;;;;4342080;28;659667;-61
2021/01/24 10:35:12;;;;;;;47.50;17.47;;;1.50;99.90;;;;;;4365685;28;660735;-61
2021/01/24 10:37:59;;;;;;;26.97;8.83;;;1.50;99.90;;;;;;4354869;28;659787;-62
2021/01/24 10:40:47;;;;;;;48.57;16.47;;;1.70;99.90;;;;;;4369621;28;658814;-60
2021/01/24 10:43:34;;;;;;;51.67;18.43;;;1.70;99.90;;;;;;4347489;28;659740;-62
2021/01/24 10:46:21;;;;;;;47.93;18.90;;;1.60;99.90;;;;;;4368475;28;660096;-60
2021/01/24 10:49:10;;;;;;;50.67;18.00;;;1.60;99.90;;;;;;4364076;28;659936;-60
2021/01/24 10:51:58;;;;;;;39.72;13.88;;;1.70;99.90;;;;;;4338567;28;661344;-60
2021/01/24 10:54:45;;;;;;;52.93;18.23;;;1.80;99.90;;;;;;4345702;28;659608;-60
2021/01/24 10:57:32;;;;;;;38.83;12.23;;;1.70;99.90;;;;;;4364032;28;661963;-60
2021/01/24 11:00:21;;;;;;;61.67;20.90;;;1.70;99.90;;;;;;4345477;28;659547;-61
2021/01/24 11:03:08;;;;;;;52.53;16.33;;;1.50;99.90;;;;;;4363023;28;659905;-60
2021/01/24 11:05:55;;;;;;;71.57;21.10;;;1.50;99.90;;;;;;4343107;28;659734;-61
2021/01/24 11:08:42;;;;;;;54.20;16.87;;;1.50;99.90;;;;;;4367699;28;660673;-60
2021/01/24 11:11:29;;;;;;;46.23;14.23;;;1.40;99.90;;;;;;4352064;28;660205;-62
2021/01/24 11:14:17;;;;;;;63.03;21.07;;;1.50;99.90;;;;;;4363081;28;660875;-60
2021/01/24 11:17:04;;;;;;;45.75;15.88;;;1.50;99.90;;;;;;4345251;28;659680;-62
2021/01/24 11:19:52;;;;;;;60.00;21.15;;;1.50;99.90;;;;;;4367691;28;659384;-60
2021/01/24 11:22:39;;;;;;;69.07;22.73;;;1.50;99.90;;;;;;4360816;28;659742;-61
2021/01/24 11:25:26;;;;;;;63.33;20.13;;;1.50;99.90;;;;;;4367655;28;659507;-60
2021/01/24 11:28:13;;;;;;;57.88;19.80;;;1.50;99.90;;;;;;4367850;28;660280;-61
2021/01/24 11:31:01;;;;;;;52.28;15.73;;;1.60;99.90;;;;;;4360634;28;659890;-60
2021/01/24 11:33:48;;;;;;;53.28;17.92;;;1.60;99.90;;;;;;4375868;28;659842;-60
2021/01/24 11:36:35;;;;;;;49.90;18.10;;;1.70;99.90;;;;;;4360673;28;660076;-61
2021/01/24 11:39:22;;;;;;;51.83;18.57;;;1.70;99.90;;;;;;4378897;28;660941;-61
2021/01/24 11:42:11;;;;;;;59.93;18.87;;;1.80;99.90;;;;;;4360522;28;660207;-60
2021/01/24 11:45:01;;;;;;;40.00;13.07;;;1.70;99.90;;;;;;4379306;28;659914;-61
2021/01/24 11:47:52;;;;;;;32.93;10.33;;;1.70;99.90;;;;;;4356441;28;660162;-60
2021/01/24 11:50:41;;;;;;;24.17;7.63;;;1.80;99.90;;;;;;4341227;28;659984;-61
2021/01/24 11:53:29;;;;;;;50.90;20.00;;;1.80;99.90;;;;;;4379935;28;659266;-60
2021/01/24 11:56:16;;;;;;;30.77;9.97;;;1.90;99.90;;;;;;4360531;28;661109;-60
2021/01/24 11:59:03;;;;;;;36.50;13.00;;;1.80;99.90;;;;;;4379603;28;660173;-60
2021/01/24 12:01:50;;;;;;;37.80;14.93;;;1.80;99.90;;;;;;4356390;28;659881;-60
2021/01/24 12:04:38;;;;;;;30.07;10.60;;;1.90;99.90;;;;;;4379107;28;661053;-60
2021/01/24 12:07:25;;;;;;;44.80;16.98;;;1.90;99.90;;;;;;4360398;28;659766;-60
2021/01/24 12:10:13;;;;;;;32.13;11.23;;;1.90;99.90;;;;;;4378908;28;659900;-60
2021/01/24 12:13:00;;;;;;;26.67;10.07;;;1.70;99.90;;;;;;4359851;28;660240;-61
2021/01/24 12:15:47;;;;;;;38.20;13.30;;;1.70;99.90;;;;;;4378555;28;662264;-60
2021/01/24 12:18:34;;;;;;;18.67;6.87;;;1.70;99.90;;;;;;4374845;28;660268;-61
2021/01/24 12:21:22;;;;;;;29.42;11.45;;;1.70;99.90;;;;;;4384002;28;658051;-60
2021/01/24 12:24:10;;;;;;;29.40;10.67;;;1.70;99.90;;;;;;4359918;28;659653;-60
2021/01/24 12:26:57;;;;;;;26.13;9.93;;;1.70;99.90;;;;;;4378862;28;659910;-60
2021/01/24 12:29:44;;;;;;;23.57;7.67;;;1.70;99.90;;;;;;4370931;28;658550;-61
2021/01/24 12:32:31;;;;;;;29.53;11.40;;;1.70;99.90;;;;;;4382956;28;658210;-60
2021/01/24 12:35:18;;;;;;;20.40;8.23;;;1.80;99.90;;;;;;4378703;28;660660;-60
2021/01/24 12:38:06;;;;;;;24.17;9.90;;;2.00;99.90;;;;;;4361064;28;659218;-60
2021/01/24 12:40:53;;;;;;;27.33;10.80;;;2.00;99.90;;;;;;4380015;28;659315;-60
2021/01/24 12:43:40;;;;;;;19.90;8.45;;;2.10;99.90;;;;;;4358652;28;660280;-61
2021/01/24 12:46:27;;;;;;;17.17;8.30;;;2.00;99.90;;;;;;4379679;28;660729;-61
2021/01/24 12:49:14;;;;;;;23.45;9.20;;;2.10;99.90;;;;;;4345552;28;658652;-61
2021/01/24 12:52:01;;;;;;;10.77;4.43;;;2.30;99.90;;;;;;4383649;28;658214;-60
2021/01/24 12:54:50;;;;;;;13.83;7.30;;;2.50;99.90;;;;;;4378003;28;658478;-62
2021/01/24 12:57:37;;;;;;;10.03;5.10;;;2.90;99.90;;;;;;4379533;28;659520;-60
2021/01/24 13:00:24;;;;;;;13.27;6.90;;;3.10;99.90;;;;;;4360513;28;658508;-61
2021/01/24 13:03:11;;;;;;;17.27;7.97;;;3.10;99.90;;;;;;4379596;28;660132;-60
2021/01/24 13:05:59;;;;;;;14.43;6.87;;;3.70;99.90;;;;;;4377820;28;658933;-62
2021/01/24 13:08:47;;;;;;;14.97;7.70;;;4.00;99.90;;;;;;4382696;28;658304;-61
2021/01/24 13:11:35;;;;;;;17.70;7.43;;;4.60;99.90;;;;;;4372247;28;659971;-61
2021/01/24 13:14:22;;;;;;;17.40;8.77;;;4.60;99.90;;;;;;4379407;28;659661;-60
2021/01/24 13:17:09;;;;;;;20.10;7.60;;;3.90;99.90;;;;;;4364529;28;659252;-61
2021/01/24 13:19:56;;;;;;;14.43;7.33;;;3.70;99.90;;;;;;4379388;28;659773;-60
2021/01/24 13:22:43;;;;;;;8.13;3.63;;;3.30;99.90;;;;;;4378995;28;658866;-60
2021/01/24 13:25:30;;;;;;;17.83;7.88;;;3.20;99.90;;;;;;4361517;28;657502;-60
2021/01/24 13:28:19;;;;;;;19.60;7.72;;;3.10;99.90;;;;;;4373227;28;660296;-60
2021/01/24 13:31:06;;;;;;;20.07;9.60;;;3.00;99.90;;;;;;4340757;28;660364;-61
2021/01/24 13:33:53;;;;;;;19.63;8.57;;;3.00;99.90;;;;;;4362178;28;659086;-61
2021/01/24 13:36:40;;;;;;;9.00;3.60;;;2.70;99.90;;;;;;4344332;28;658480;-61
2021/01/24 13:39:27;;;;;;;23.40;9.93;;;2.80;99.90;;;;;;4368409;28;658251;-60
2021/01/24 13:42:14;;;;;;;14.77;7.63;;;2.80;99.90;;;;;;4354216;28;658733;-61
2021/01/24 13:45:02;;;;;;;18.42;9.50;;;2.70;99.90;;;;;;4368220;28;658168;-60
2021/01/24 13:47:49;;;;;;;10.90;5.40;;;2.60;99.90;;;;;;4346685;28;659760;-61
2021/01/24 13:50:37;;;;;;;22.40;10.70;;;2.50;99.90;;;;;;4366177;28;659782;-61
2021/01/24 13:53:26;;;;;;;25.17;11.37;;;2.60;99.90;;;;;;4346562;28;659663;-62
2021/01/24 13:56:13;;;;;;;21.53;10.07;;;2.60;99.90;;;;;;4365372;28;659868;-61
2021/01/24 13:59:00;;;;;;;24.67;10.97;;;2.50;99.90;;;;;;4346139;28;660192;-60
2021/01/24 14:01:48;;;;;;;22.50;10.67;;;2.40;99.90;;;;;;4365175;28;660510;-61
2021/01/24 14:04:35;;;;;;;25.10;11.90;;;2.30;99.90;;;;;;4342705;28;659677;-61
2021/01/24 14:07:22;;;;;;;26.03;11.63;;;2.20;99.90;;;;;;4364876;28;661228;-60
2021/01/24 14:10:10;;;;;;;26.17;11.10;;;2.20;99.90;;;;;;4346356;28;659855;-61